createdAt,value
2023-05-01T00:01:54.451Z,13.00
2023-05-01T00:04:23.557Z,13.10
2023-05-01T00:06:53.491Z,13.00
2023-05-01T00:09:21.857Z,12.90
2023-05-01T00:11:50.505Z,12.90
2023-05-01T00:14:18.944Z,13.30
2023-05-01T00:16:48.028Z,13.50
2023-05-01T00:19:19.109Z,13.70
2023-05-01T00:21:48.531Z,13.90
2023-05-01T00:24:18.776Z,14.00
2023-05-01T00:26:47.120Z,14.00
2023-05-01T00:29:15.808Z,14.20
2023-05-01T00:31:45.758Z,14.20
2023-05-01T00:34:14.284Z,14.20
2023-05-01T00:36:42.808Z,14.30
2023-05-01T00:39:11.622Z,14.40
2023-05-01T00:41:41.580Z,14.50
2023-05-01T00:44:09.931Z,14.40
2023-05-01T00:46:39.302Z,14.20
2023-05-01T00:49:07.906Z,14.20
2023-05-01T00:51:37.489Z,14.10
2023-05-01T00:54:07.416Z,13.80
2023-05-01T00:56:36.094Z,13.20
2023-05-01T00:59:05.948Z,13.10
2023-05-01T01:01:34.800Z,12.90
2023-05-01T01:04:03.642Z,12.50
2023-05-01T01:06:39.275Z,12.80
2023-05-01T01:09:22.283Z,12.70
2023-05-01T01:11:59.448Z,12.70
2023-05-01T01:14:34.277Z,12.70
2023-05-01T01:17:09.488Z,13.00
2023-05-01T01:20:15.482Z,13.00
2023-05-01T01:22:52.148Z,12.50
2023-05-01T01:26:02.509Z,12.70
2023-05-01T01:28:52.103Z,12.80
2023-05-01T01:31:23.014Z,13.00
2023-05-01T01:34:05.901Z,12.80
2023-05-01T01:36:42.532Z,12.90
2023-05-01T01:39:16.187Z,13.10
2023-05-01T01:41:51.529Z,13.20
2023-05-01T01:44:27.090Z,12.90
2023-05-01T01:46:56.103Z,12.70
2023-05-01T01:49:28.686Z,12.80
2023-05-01T01:51:59.155Z,13.00
2023-05-01T01:54:31.640Z,13.40
2023-05-01T01:57:03.448Z,13.70
2023-05-01T01:59:34.732Z,13.70
2023-05-01T02:02:06.127Z,13.90
2023-05-01T02:04:38.012Z,13.70
2023-05-01T02:07:07.719Z,13.70
2023-05-01T02:09:37.910Z,13.50
2023-05-01T02:12:09.342Z,13.60
2023-05-01T02:14:39.095Z,13.50
2023-05-01T02:17:09.244Z,13.50
2023-05-01T02:19:45.963Z,13.20
2023-05-01T02:22:18.332Z,13.00
2023-05-01T02:24:49.856Z,12.80
2023-05-01T02:27:22.199Z,12.80
2023-05-01T02:29:53.665Z,12.90
2023-05-01T02:32:22.978Z,13.20
2023-05-01T02:34:53.291Z,13.20
2023-05-01T02:37:22.374Z,13.20
2023-05-01T02:39:51.405Z,13.10
2023-05-01T02:42:25.672Z,12.90
2023-05-01T02:44:58.840Z,12.50
2023-05-01T02:47:30.025Z,12.30
2023-05-01T02:50:01.566Z,12.30
2023-05-01T02:52:31.144Z,12.30
2023-05-01T02:55:18.946Z,12.20
2023-05-01T02:57:47.377Z,12.10
2023-05-01T03:00:15.884Z,12.10
2023-05-01T03:02:44.539Z,12.10
2023-05-01T03:05:14.437Z,12.10
2023-05-01T03:07:43.586Z,12.00
2023-05-01T03:10:12.680Z,12.10
2023-05-01T03:12:41.978Z,12.30
2023-05-01T03:15:12.074Z,12.30
2023-05-01T03:17:40.513Z,12.20
2023-05-01T03:20:11.040Z,12.20
2023-05-01T03:22:41.861Z,12.30
2023-05-01T03:25:11.286Z,12.30
2023-05-01T03:27:39.871Z,12.20
2023-05-01T03:30:10.123Z,12.00
2023-05-01T03:32:42.225Z,11.90
2023-05-01T03:35:19.126Z,11.80
2023-05-01T03:37:49.457Z,11.70
2023-05-01T03:40:38.490Z,11.80
2023-05-01T03:43:26.093Z,11.80
2023-05-01T03:45:56.184Z,11.70
2023-05-01T03:48:25.627Z,11.60
2023-05-01T03:50:54.171Z,11.60
2023-05-01T03:53:24.821Z,11.60
2023-05-01T03:55:53.493Z,11.70
2023-05-01T03:58:22.354Z,11.90
2023-05-01T04:00:52.332Z,12.10
2023-05-01T04:03:21.108Z,12.00
2023-05-01T04:05:55.138Z,12.00
2023-05-01T04:08:25.380Z,11.90
2023-05-01T04:10:53.848Z,11.80
2023-05-01T04:13:23.402Z,11.80
2023-05-01T04:15:52.039Z,11.60
2023-05-01T04:18:20.713Z,11.70
2023-05-01T04:20:49.035Z,11.60
2023-05-01T04:23:17.491Z,11.50
2023-05-01T04:25:49.326Z,11.60
2023-05-01T04:28:19.669Z,11.70
2023-05-01T04:30:48.190Z,11.70
2023-05-01T04:33:16.722Z,11.70
2023-05-01T04:35:45.363Z,11.70
2023-05-01T04:38:14.345Z,11.70
2023-05-01T04:40:43.384Z,11.70
2023-05-01T04:43:13.363Z,11.80
2023-05-01T04:45:42.766Z,11.80
2023-05-01T04:48:11.295Z,11.70
2023-05-01T04:50:39.707Z,11.80
2023-05-01T04:53:09.950Z,11.80
2023-05-01T04:55:40.416Z,11.70
2023-05-01T04:58:16.799Z,11.80
2023-05-01T05:00:47.350Z,11.90
2023-05-01T05:03:22.155Z,11.90
2023-05-01T05:05:50.836Z,11.80
2023-05-01T05:08:19.994Z,11.80
2023-05-01T05:10:59.878Z,11.80
2023-05-01T05:13:33.829Z,11.90
2023-05-01T05:16:05.981Z,12.00
2023-05-01T05:18:34.527Z,12.00
2023-05-01T05:21:06.619Z,12.30
2023-05-01T05:23:35.248Z,12.70
2023-05-01T05:26:04.158Z,12.70
2023-05-01T05:28:34.163Z,12.60
2023-05-01T05:31:02.618Z,12.70
2023-05-01T05:33:32.845Z,12.80
2023-05-01T05:36:02.062Z,12.90
2023-05-01T05:38:37.156Z,12.80
2023-05-01T05:41:08.109Z,12.90
2023-05-01T05:43:38.662Z,12.70
2023-05-01T05:46:09.034Z,12.80
2023-05-01T05:48:38.935Z,12.90
2023-05-01T05:51:07.674Z,13.20
2023-05-01T05:53:36.620Z,13.20
2023-05-01T05:56:05.474Z,13.30
2023-05-01T05:58:37.940Z,13.30
2023-05-01T06:01:09.426Z,13.30
2023-05-01T06:03:39.716Z,13.20
2023-05-01T06:06:08.947Z,13.40
2023-05-01T06:08:37.949Z,13.50
2023-05-01T06:11:10.736Z,13.50
2023-05-01T06:13:42.304Z,13.50
2023-05-01T06:16:11.218Z,13.40
2023-05-01T06:18:39.772Z,13.60
2023-05-01T06:21:08.330Z,13.70
2023-05-01T06:23:37.099Z,13.70
2023-05-01T06:26:27.080Z,13.70
2023-05-01T06:28:57.605Z,13.90
2023-05-01T06:31:30.202Z,14.00
2023-05-01T06:33:59.327Z,14.10
2023-05-01T06:36:32.590Z,14.00
2023-05-01T06:39:00.946Z,14.30
2023-05-01T06:41:29.308Z,14.50
2023-05-01T06:43:59.850Z,14.50
2023-05-01T06:46:28.618Z,14.70
2023-05-01T06:48:57.021Z,14.80
2023-05-01T06:51:25.999Z,14.80
2023-05-01T06:53:54.505Z,14.60
2023-05-01T06:56:23.592Z,14.70
2023-05-01T06:58:52.099Z,14.50
2023-05-01T07:01:22.838Z,14.60
2023-05-01T07:03:51.878Z,14.60
2023-05-01T07:06:20.554Z,14.80
2023-05-01T07:08:49.137Z,14.90
2023-05-01T07:11:17.490Z,15.00
2023-05-01T07:13:46.545Z,14.90
2023-05-01T07:16:14.938Z,15.10
2023-05-01T07:18:46.652Z,15.10
2023-05-01T07:21:15.867Z,15.10
2023-05-01T07:23:45.190Z,15.10
2023-05-01T07:26:14.045Z,15.10
2023-05-01T07:28:42.751Z,15.10
2023-05-01T07:31:11.384Z,15.00
2023-05-01T07:33:39.953Z,14.90
2023-05-01T07:36:09.837Z,14.90
2023-05-01T07:38:38.565Z,14.60
2023-05-01T07:41:07.588Z,14.60
2023-05-01T07:43:36.037Z,14.30
2023-05-01T07:46:05.488Z,14.50
2023-05-01T07:48:35.051Z,14.40
2023-05-01T07:51:05.083Z,14.40
2023-05-01T07:53:35.511Z,14.70
2023-05-01T07:56:08.926Z,14.50
2023-05-01T07:58:38.296Z,14.40
2023-05-01T08:01:07.795Z,14.50
2023-05-01T08:03:37.222Z,14.50
2023-05-01T08:06:06.178Z,14.50
2023-05-01T08:08:36.045Z,14.40
2023-05-01T08:11:04.409Z,14.60
2023-05-01T08:13:32.872Z,14.60
2023-05-01T08:16:05.317Z,14.50
2023-05-01T08:18:33.861Z,14.70
2023-05-01T08:21:02.223Z,14.60
2023-05-01T08:23:32.202Z,14.90
2023-05-01T08:26:01.924Z,15.20
2023-05-01T08:28:30.657Z,15.30
2023-05-01T08:30:59.453Z,15.20
2023-05-01T08:33:27.891Z,15.30
2023-05-01T08:35:56.291Z,15.00
2023-05-01T08:38:24.761Z,15.30
2023-05-01T08:40:54.964Z,15.40
2023-05-01T08:43:26.904Z,15.30
2023-05-01T08:45:57.327Z,15.50
2023-05-01T08:48:28.092Z,15.70
2023-05-01T08:50:59.387Z,16.00
2023-05-01T08:53:28.652Z,16.10
2023-05-01T08:55:57.652Z,16.30
2023-05-01T08:58:29.687Z,16.30
2023-05-01T09:01:01.216Z,16.10
2023-05-01T09:03:32.896Z,16.00
2023-05-01T09:06:05.114Z,16.00
2023-05-01T09:08:34.670Z,15.60
2023-05-01T09:11:03.910Z,15.60
2023-05-01T09:13:33.870Z,15.70
2023-05-01T09:16:02.456Z,15.70
2023-05-01T09:18:31.413Z,15.80
2023-05-01T09:21:00.215Z,15.80
2023-05-01T09:23:28.737Z,15.70
2023-05-01T09:25:58.719Z,15.80
2023-05-01T09:28:45.941Z,15.90
2023-05-01T09:31:28.778Z,15.80
2023-05-01T09:33:58.617Z,15.80
2023-05-01T09:36:31.062Z,16.20
2023-05-01T09:39:00.288Z,16.30
2023-05-01T09:41:31.686Z,16.30
2023-05-01T09:44:01.892Z,16.30
2023-05-01T09:46:42.299Z,16.50
2023-05-01T09:49:11.897Z,16.70
2023-05-01T09:51:40.798Z,16.80
2023-05-01T09:54:19.619Z,16.90
2023-05-01T09:56:49.884Z,16.80
2023-05-01T09:59:21.633Z,16.60
2023-05-01T10:01:50.931Z,16.50
2023-05-01T10:04:31.228Z,16.50
2023-05-01T10:07:00.793Z,16.50
2023-05-01T10:09:30.690Z,16.60
2023-05-01T10:12:00.630Z,16.80
2023-05-01T10:14:33.842Z,16.70
2023-05-01T10:17:08.776Z,16.90
2023-05-01T10:19:38.063Z,16.70
2023-05-01T10:22:06.724Z,16.70
2023-05-01T10:24:35.600Z,16.60
2023-05-01T10:27:05.708Z,16.40
2023-05-01T10:29:37.359Z,16.40
2023-05-01T10:32:09.230Z,16.40
2023-05-01T10:34:44.489Z,16.40
2023-05-01T10:37:19.408Z,16.40
2023-05-01T10:39:48.048Z,16.30
2023-05-01T10:42:18.172Z,16.30
2023-05-01T10:44:50.008Z,16.60
2023-05-01T10:47:46.713Z,16.80
2023-05-01T10:50:16.909Z,16.80
2023-05-01T10:53:18.428Z,16.80
2023-05-01T10:55:49.442Z,16.60
2023-05-01T10:58:56.757Z,16.70
2023-05-01T11:01:35.066Z,16.60
2023-05-01T11:04:08.287Z,16.70
2023-05-01T11:06:39.327Z,16.70
2023-05-01T11:09:40.117Z,16.60
2023-05-01T11:12:10.407Z,16.80
2023-05-01T11:15:05.756Z,16.90
2023-05-01T11:17:49.922Z,17.00
2023-05-01T11:20:48.716Z,16.80
2023-05-01T11:23:22.354Z,16.80
2023-05-01T11:26:02.306Z,16.90
2023-05-01T11:28:33.281Z,16.90
2023-05-01T11:31:03.581Z,16.90
2023-05-01T11:33:34.533Z,17.10
2023-05-01T11:36:05.050Z,17.20
2023-05-01T11:38:33.679Z,17.50
2023-05-01T11:41:04.547Z,17.50
2023-05-01T11:43:33.549Z,17.80
2023-05-01T11:46:05.022Z,18.00
2023-05-01T11:48:35.079Z,18.20
2023-05-01T11:51:14.210Z,18.10
2023-05-01T11:53:43.026Z,18.00
2023-05-01T11:56:26.769Z,18.20
2023-05-01T11:58:57.735Z,18.30
2023-05-01T12:01:36.094Z,18.30
2023-05-01T12:04:08.299Z,18.30
2023-05-01T12:06:44.644Z,18.40
2023-05-01T12:09:17.979Z,18.50
2023-05-01T12:11:59.775Z,18.50
2023-05-01T12:14:39.000Z,18.50
2023-05-01T12:17:18.075Z,18.30
2023-05-01T12:19:50.835Z,18.30
2023-05-01T12:22:22.055Z,18.60
2023-05-01T12:24:52.922Z,18.50
2023-05-01T12:27:33.117Z,18.50
2023-05-01T12:30:13.231Z,18.50
2023-05-01T12:32:43.364Z,18.60
2023-05-01T12:35:18.415Z,18.50
2023-05-01T12:37:50.981Z,18.50
2023-05-01T12:40:20.695Z,18.50
2023-05-01T12:42:57.283Z,18.40
2023-05-01T12:45:26.502Z,18.40
2023-05-01T12:47:55.434Z,18.40
2023-05-01T12:50:25.868Z,18.30
2023-05-01T12:52:54.533Z,18.30
2023-05-01T12:55:23.817Z,18.40
2023-05-01T12:57:56.102Z,18.50
2023-05-01T13:00:25.018Z,18.40
2023-05-01T13:02:56.094Z,18.50
2023-05-01T13:05:26.357Z,18.50
2023-05-01T13:07:56.803Z,18.50
2023-05-01T13:10:35.690Z,18.40
2023-05-01T13:13:05.162Z,18.50
2023-05-01T13:15:34.399Z,18.40
2023-05-01T13:18:06.308Z,18.30
2023-05-01T13:20:38.945Z,18.20
2023-05-01T13:23:12.932Z,18.20
2023-05-01T13:25:41.741Z,18.30
2023-05-01T13:28:11.914Z,18.40
2023-05-01T13:30:41.017Z,18.40
2023-05-01T13:33:12.576Z,18.50
2023-05-01T13:35:42.846Z,18.70
2023-05-01T13:38:13.815Z,18.80
2023-05-01T13:40:42.937Z,18.90
2023-05-01T13:43:16.396Z,18.90
2023-05-01T13:45:45.141Z,18.80
2023-05-01T13:48:13.975Z,18.70
2023-05-01T13:50:46.100Z,18.90
2023-05-01T13:53:16.891Z,19.00
2023-05-01T13:55:48.496Z,19.10
2023-05-01T13:58:17.157Z,19.00
2023-05-01T14:00:47.380Z,19.00
2023-05-01T14:03:18.995Z,19.00
2023-05-01T14:05:49.950Z,19.10
2023-05-01T14:08:22.619Z,19.20
2023-05-01T14:10:52.023Z,19.40
2023-05-01T14:13:21.072Z,19.10
2023-05-01T14:15:49.932Z,19.00
2023-05-01T14:18:19.729Z,18.80
2023-05-01T14:20:51.497Z,18.80
2023-05-01T14:23:20.872Z,18.90
2023-05-01T14:25:51.263Z,19.00
2023-05-01T14:28:21.123Z,19.30
2023-05-01T14:30:51.043Z,19.40
2023-05-01T14:33:19.944Z,19.50
2023-05-01T14:35:52.607Z,19.00
2023-05-01T14:38:23.694Z,19.10
2023-05-01T14:40:52.976Z,19.30
2023-05-01T14:43:22.966Z,19.40
2023-05-01T14:45:54.044Z,19.30
2023-05-01T14:48:24.772Z,19.20
2023-05-01T14:50:56.085Z,19.30
2023-05-01T14:53:25.133Z,19.30
2023-05-01T14:55:54.276Z,19.30
2023-05-01T14:58:22.702Z,19.20
2023-05-01T15:00:51.510Z,19.10
2023-05-01T15:03:20.340Z,18.90
2023-05-01T15:05:50.473Z,18.80
2023-05-01T15:08:20.934Z,19.10
2023-05-01T15:10:52.562Z,19.40
2023-05-01T15:13:21.517Z,19.70
2023-05-01T15:15:50.390Z,19.90
2023-05-01T15:18:19.180Z,19.80
2023-05-01T15:20:47.817Z,19.80
2023-05-01T15:23:16.775Z,20.00
2023-05-01T15:25:48.024Z,20.00
2023-05-01T15:28:17.351Z,20.20
2023-05-01T15:30:47.308Z,20.20
2023-05-01T15:33:19.072Z,20.20
2023-05-01T15:35:48.850Z,20.20
2023-05-01T15:38:17.989Z,20.00
2023-05-01T15:40:50.012Z,20.00
2023-05-01T15:43:19.939Z,20.00
2023-05-01T15:45:48.599Z,20.00
2023-05-01T15:48:17.275Z,20.20
2023-05-01T15:50:49.234Z,20.00
2023-05-01T15:53:18.586Z,20.00
2023-05-01T15:55:48.411Z,20.00
2023-05-01T15:58:17.215Z,20.00
2023-05-01T16:00:48.348Z,19.90
2023-05-01T16:03:18.608Z,19.90
2023-05-01T16:05:47.585Z,20.00
2023-05-01T16:08:16.086Z,20.00
2023-05-01T16:10:44.646Z,20.10
2023-05-01T16:13:15.049Z,20.20
2023-05-01T16:15:43.498Z,20.30
2023-05-01T16:18:19.807Z,20.20
2023-05-01T16:20:48.332Z,20.30
2023-05-01T16:24:01.798Z,20.40
2023-05-01T16:26:31.483Z,20.20
2023-05-01T16:29:07.944Z,19.90
2023-05-01T16:31:40.125Z,19.40
2023-05-01T16:34:11.950Z,18.90
2023-05-01T16:36:43.391Z,17.60
2023-05-01T16:39:14.974Z,17.10
2023-05-01T16:41:46.308Z,17.00
2023-05-01T16:44:17.774Z,16.70
2023-05-01T16:46:53.469Z,16.70
2023-05-01T16:49:22.393Z,16.90
2023-05-01T16:51:54.872Z,17.00
2023-05-01T16:54:23.319Z,16.90
2023-05-01T16:56:51.869Z,16.90
2023-05-01T16:59:24.854Z,16.40
2023-05-01T17:01:53.942Z,16.10
2023-05-01T17:04:22.486Z,15.90
2023-05-01T17:06:51.407Z,15.80
2023-05-01T17:09:20.115Z,15.80
2023-05-01T17:11:59.147Z,15.80
2023-05-01T17:14:30.608Z,15.90
2023-05-01T17:16:59.653Z,16.00
2023-05-01T17:19:28.368Z,15.80
2023-05-01T17:21:57.929Z,15.60
2023-05-01T17:24:26.974Z,15.50
2023-05-01T17:26:55.543Z,15.40
2023-05-01T17:29:24.280Z,15.40
2023-05-01T17:31:54.365Z,15.50
2023-05-01T17:34:22.916Z,15.60
2023-05-01T17:36:51.596Z,15.70
2023-05-01T17:39:21.742Z,15.80
2023-05-01T17:41:50.677Z,16.10
2023-05-01T17:44:19.021Z,16.30
2023-05-01T17:46:47.433Z,16.60
2023-05-01T17:49:17.994Z,16.80
2023-05-01T17:51:46.439Z,17.00
2023-05-01T17:54:16.765Z,17.20
2023-05-01T17:56:45.282Z,17.20
2023-05-01T17:59:14.350Z,17.40
2023-05-01T18:01:42.762Z,17.70
2023-05-01T18:04:11.517Z,17.80
2023-05-01T18:06:41.465Z,17.90
2023-05-01T18:09:10.641Z,17.70
2023-05-01T18:11:39.039Z,17.20
2023-05-01T18:14:07.443Z,16.60
2023-05-01T18:16:36.189Z,16.20
2023-05-01T18:19:05.911Z,16.20
2023-05-01T18:21:34.879Z,16.10
2023-05-01T18:24:05.526Z,16.10
2023-05-01T18:26:33.969Z,16.10
2023-05-01T18:29:02.808Z,16.00
2023-05-01T18:31:34.040Z,15.80
2023-05-01T18:34:02.649Z,15.70
2023-05-01T18:36:31.783Z,15.70
2023-05-01T18:39:00.927Z,15.70
2023-05-01T18:41:31.944Z,15.60
2023-05-01T18:44:01.394Z,15.60
2023-05-01T18:46:29.890Z,15.50
2023-05-01T18:48:59.796Z,15.70
2023-05-01T18:51:28.217Z,15.80
2023-05-01T18:53:56.604Z,16.00
2023-05-01T18:56:27.593Z,16.30
2023-05-01T18:58:57.522Z,16.30
2023-05-01T19:01:26.951Z,16.30
2023-05-01T19:03:58.967Z,15.90
2023-05-01T19:06:27.597Z,15.70
2023-05-01T19:08:56.485Z,15.60
2023-05-01T19:11:26.349Z,15.50
2023-05-01T19:13:55.167Z,15.30
2023-05-01T19:16:25.729Z,15.50
2023-05-01T19:18:54.200Z,15.60
2023-05-01T19:21:22.645Z,15.70
2023-05-01T19:23:51.113Z,16.10
2023-05-01T19:26:19.621Z,16.10
2023-05-01T19:28:48.246Z,16.10
2023-05-01T19:31:19.962Z,16.10
2023-05-01T19:33:50.131Z,16.00
2023-05-01T19:36:18.527Z,15.60
2023-05-01T19:38:47.602Z,15.50
2023-05-01T19:41:17.134Z,15.50
2023-05-01T19:43:45.474Z,15.50
2023-05-01T19:46:14.017Z,15.60
2023-05-01T19:48:42.657Z,15.80
2023-05-01T19:51:12.651Z,16.00
2023-05-01T19:53:42.049Z,16.00
2023-05-01T19:56:11.449Z,15.80
2023-05-01T19:58:40.132Z,15.70
2023-05-01T20:01:11.821Z,15.90
2023-05-01T20:03:40.568Z,15.90
2023-05-01T20:06:09.124Z,16.20
2023-05-01T20:08:39.043Z,16.10
2023-05-01T20:11:07.680Z,16.30
2023-05-01T20:13:36.793Z,16.50
2023-05-01T20:16:05.837Z,16.40
2023-05-01T20:18:34.790Z,16.50
2023-05-01T20:21:03.185Z,16.50
2023-05-01T20:23:31.628Z,16.50
2023-05-01T20:26:04.813Z,16.60
2023-05-01T20:28:33.189Z,16.40
2023-05-01T20:31:02.230Z,16.20
2023-05-01T20:33:31.715Z,16.20
2023-05-01T20:36:00.347Z,15.90
2023-05-01T20:38:28.731Z,15.80
2023-05-01T20:40:57.139Z,15.40
2023-05-01T20:43:27.036Z,15.10
2023-05-01T20:45:57.126Z,15.30
2023-05-01T20:48:27.044Z,15.00
2023-05-01T20:50:55.645Z,14.50
2023-05-01T20:53:24.066Z,14.50
2023-05-01T20:55:52.592Z,14.80
2023-05-01T20:58:20.996Z,14.70
2023-05-01T21:00:50.899Z,14.70
2023-05-01T21:03:19.447Z,14.90
2023-05-01T21:05:48.894Z,15.20
2023-05-01T21:08:17.613Z,15.40
2023-05-01T21:10:46.047Z,15.60
2023-05-01T21:13:15.456Z,15.40
2023-05-01T21:15:43.832Z,15.30
2023-05-01T21:18:15.466Z,15.00
2023-05-01T21:20:46.120Z,14.80
2023-05-01T21:23:18.392Z,14.50
2023-05-01T21:25:46.806Z,14.20
2023-05-01T21:28:16.265Z,13.90
2023-05-01T21:30:45.720Z,13.70
2023-05-01T21:33:17.304Z,13.70
2023-05-01T21:35:47.441Z,14.10
2023-05-01T21:38:16.227Z,14.20
2023-05-01T21:40:46.170Z,14.20
2023-05-01T21:43:14.861Z,14.20
2023-05-01T21:45:45.583Z,14.50
2023-05-01T21:48:18.430Z,14.70
2023-05-01T21:50:50.690Z,15.00
2023-05-01T21:53:21.086Z,15.10
2023-05-01T21:55:49.551Z,15.30
2023-05-01T21:58:18.016Z,15.40
2023-05-01T22:00:47.615Z,15.50
2023-05-01T22:03:20.162Z,15.60
2023-05-01T22:05:50.858Z,15.70
2023-05-01T22:08:19.883Z,15.70
2023-05-01T22:10:48.983Z,15.50
2023-05-01T22:13:17.920Z,15.20
2023-05-01T22:15:48.820Z,15.00
2023-05-01T22:18:19.689Z,15.20
2023-05-01T22:20:48.606Z,15.40
2023-05-01T22:23:16.900Z,15.20
2023-05-01T22:25:47.187Z,15.10
2023-05-01T22:28:17.564Z,15.10
2023-05-01T22:30:48.909Z,15.10
2023-05-01T22:33:18.950Z,14.80
2023-05-01T22:35:47.681Z,14.60
2023-05-01T22:38:15.968Z,14.50
2023-05-01T22:40:44.382Z,14.40
2023-05-01T22:43:12.823Z,14.10
2023-05-01T22:45:43.139Z,13.90
2023-05-01T22:48:12.145Z,13.90
2023-05-01T22:50:43.121Z,13.80
2023-05-01T22:53:12.484Z,13.60
2023-05-01T22:55:41.266Z,13.60
2023-05-01T22:58:09.671Z,14.10
2023-05-01T23:00:38.423Z,14.00
2023-05-01T23:03:08.070Z,13.80
2023-05-01T23:05:36.827Z,13.70
2023-05-01T23:08:07.350Z,13.60
2023-05-01T23:10:36.170Z,13.60
2023-05-01T23:13:04.965Z,13.90
2023-05-01T23:15:33.695Z,14.20
2023-05-01T23:18:02.169Z,14.50
2023-05-01T23:20:30.704Z,14.10
2023-05-01T23:23:01.273Z,14.00
2023-05-01T23:25:31.022Z,13.90
2023-05-01T23:27:59.387Z,13.80
2023-05-01T23:30:27.852Z,14.10
2023-05-01T23:33:00.110Z,14.30
2023-05-01T23:35:29.130Z,14.30
2023-05-01T23:37:57.436Z,14.20
2023-05-01T23:40:26.309Z,13.80
2023-05-01T23:42:57.615Z,13.90
2023-05-01T23:45:26.017Z,14.20
2023-05-01T23:47:55.095Z,14.40
2023-05-01T23:50:25.720Z,14.40
2023-05-01T23:52:54.295Z,14.30
2023-05-01T23:55:23.044Z,14.10
2023-05-01T23:57:51.514Z,13.70
